sensor_id;sensor_type;location;lat;lon;timestamp;P1;durP1;ratioP1;P2;durP2;ratioP2
24761;SDS011;12865;51.934;10.330;2023-11-19T00:01:53;0.40;;;0.40;;
24761;SDS011;12865;51.934;10.330;2023-11-19T00:04:39;0.40;;;0.40;;
24761;SDS011;12865;51.934;10.330;2023-11-19T00:07:25;0.47;;;0.47;;
24761;SDS011;12865;51.934;10.330;2023-11-19T00:10:11;0.50;;;0.50;;
24761;SDS011;12865;51.934;10.330;2023-11-19T00:12:58;0.45;;;0.45;;
24761;SDS011;12865;51.934;10.330;2023-11-19T00:15:44;0.88;;;0.88;;
24761;SDS011;12865;51.934;10.330;2023-11-19T00:18:30;0.40;;;0.40;;
24761;SDS011;12865;51.934;10.330;2023-11-19T00:21:16;0.60;;;0.60;;
24761;SDS011;12865;51.934;10.330;2023-11-19T00:24:01;0.52;;;0.52;;
24761;SDS011;12865;51.934;10.330;2023-11-19T00:26:47;0.50;;;0.50;;
24761;SDS011;12865;51.934;10.330;2023-11-19T00:29:33;0.43;;;0.43;;
24761;SDS011;12865;51.934;10.330;2023-11-19T00:32:19;0.77;;;0.60;;
24761;SDS011;12865;51.934;10.330;2023-11-19T00:35:05;0.50;;;0.50;;
24761;SDS011;12865;51.934;10.330;2023-11-19T00:37:51;0.50;;;0.50;;
24761;SDS011;12865;51.934;10.330;2023-11-19T00:40:39;0.70;;;0.60;;
24761;SDS011;12865;51.934;10.330;2023-11-19T00:43:26;0.70;;;0.70;;
24761;SDS011;12865;51.934;10.330;2023-11-19T00:46:12;0.47;;;0.47;;
24761;SDS011;12865;51.934;10.330;2023-11-19T00:48:59;0.52;;;0.52;;
24761;SDS011;12865;51.934;10.330;2023-11-19T00:51:46;0.70;;;0.70;;
24761;SDS011;12865;51.934;10.330;2023-11-19T00:54:32;0.52;;;0.52;;
24761;SDS011;12865;51.934;10.330;2023-11-19T00:57:17;0.70;;;0.70;;
24761;SDS011;12865;51.934;10.330;2023-11-19T01:00:04;1.05;;;0.57;;
24761;SDS011;12865;51.934;10.330;2023-11-19T01:03:03;0.60;;;0.60;;
24761;SDS011;12865;51.934;10.330;2023-11-19T01:05:49;0.73;;;0.65;;
24761;SDS011;12865;51.934;10.330;2023-11-19T01:08:34;0.70;;;0.70;;
24761;SDS011;12865;51.934;10.330;2023-11-19T01:11:23;0.60;;;0.60;;
24761;SDS011;12865;51.934;10.330;2023-11-19T01:14:09;0.50;;;0.50;;
24761;SDS011;12865;51.934;10.330;2023-11-19T01:16:55;0.60;;;0.60;;
24761;SDS011;12865;51.934;10.330;2023-11-19T01:19:41;0.70;;;0.70;;
24761;SDS011;12865;51.934;10.330;2023-11-19T01:22:26;0.70;;;0.70;;
24761;SDS011;12865;51.934;10.330;2023-11-19T01:25:12;0.95;;;0.70;;
24761;SDS011;12865;51.934;10.330;2023-11-19T01:27:57;0.70;;;0.70;;
24761;SDS011;12865;51.934;10.330;2023-11-19T01:30:43;0.98;;;0.60;;
24761;SDS011;12865;51.934;10.330;2023-11-19T01:33:29;0.47;;;0.47;;
24761;SDS011;12865;51.934;10.330;2023-11-19T01:36:15;0.50;;;0.50;;
24761;SDS011;12865;51.934;10.330;2023-11-19T01:39:01;0.60;;;0.60;;
24761;SDS011;12865;51.934;10.330;2023-11-19T01:41:46;0.60;;;0.60;;
24761;SDS011;12865;51.934;10.330;2023-11-19T01:44:32;1.75;;;0.60;;
24761;SDS011;12865;51.934;10.330;2023-11-19T01:47:19;0.40;;;0.40;;
24761;SDS011;12865;51.934;10.330;2023-11-19T01:50:06;0.40;;;0.40;;
24761;SDS011;12865;51.934;10.330;2023-11-19T01:52:53;0.60;;;0.60;;
24761;SDS011;12865;51.934;10.330;2023-11-19T01:55:39;0.30;;;0.30;;
24761;SDS011;12865;51.934;10.330;2023-11-19T01:58:25;0.88;;;0.40;;
24761;SDS011;12865;51.934;10.330;2023-11-19T02:01:12;1.38;;;0.30;;
24761;SDS011;12865;51.934;10.330;2023-11-19T02:03:58;1.02;;;0.40;;
24761;SDS011;12865;51.934;10.330;2023-11-19T02:06:45;0.93;;;0.40;;
24761;SDS011;12865;51.934;10.330;2023-11-19T02:09:33;0.40;;;0.40;;
24761;SDS011;12865;51.934;10.330;2023-11-19T02:12:19;0.32;;;0.32;;
24761;SDS011;12865;51.934;10.330;2023-11-19T02:15:05;0.45;;;0.45;;
24761;SDS011;12865;51.934;10.330;2023-11-19T02:17:52;0.30;;;0.30;;
24761;SDS011;12865;51.934;10.330;2023-11-19T02:20:38;1.10;;;0.40;;
24761;SDS011;12865;51.934;10.330;2023-11-19T02:23:23;0.40;;;0.40;;
24761;SDS011;12865;51.934;10.330;2023-11-19T02:26:28;0.50;;;0.50;;
24761;SDS011;12865;51.934;10.330;2023-11-19T02:29:21;0.30;;;0.30;;
24761;SDS011;12865;51.934;10.330;2023-11-19T02:32:07;1.30;;;0.40;;
24761;SDS011;12865;51.934;10.330;2023-11-19T02:37:22;1.55;;;0.50;;
24761;SDS011;12865;51.934;10.330;2023-11-19T02:40:08;1.00;;;0.35;;
24761;SDS011;12865;51.934;10.330;2023-11-19T02:42:54;0.30;;;0.30;;
24761;SDS011;12865;51.934;10.330;2023-11-19T02:45:40;0.35;;;0.35;;
24761;SDS011;12865;51.934;10.330;2023-11-19T02:48:27;0.70;;;0.50;;
24761;SDS011;12865;51.934;10.330;2023-11-19T02:51:13;0.40;;;0.40;;
24761;SDS011;12865;51.934;10.330;2023-11-19T02:53:58;0.20;;;0.20;;
24761;SDS011;12865;51.934;10.330;2023-11-19T02:56:44;0.35;;;0.13;;
24761;SDS011;12865;51.934;10.330;2023-11-19T02:59:33;0.30;;;0.30;;
24761;SDS011;12865;51.934;10.330;2023-11-19T03:02:24;0.63;;;0.30;;
24761;SDS011;12865;51.934;10.330;2023-11-19T03:05:18;0.30;;;0.30;;
24761;SDS011;12865;51.934;10.330;2023-11-19T03:08:05;0.40;;;0.40;;
24761;SDS011;12865;51.934;10.330;2023-11-19T03:10:50;0.73;;;0.50;;
24761;SDS011;12865;51.934;10.330;2023-11-19T03:13:36;0.77;;;0.60;;
24761;SDS011;12865;51.934;10.330;2023-11-19T03:16:22;0.55;;;0.55;;
24761;SDS011;12865;51.934;10.330;2023-11-19T03:19:07;0.43;;;0.43;;
24761;SDS011;12865;51.934;10.330;2023-11-19T03:21:53;0.40;;;0.40;;
24761;SDS011;12865;51.934;10.330;2023-11-19T03:24:39;0.60;;;0.60;;
24761;SDS011;12865;51.934;10.330;2023-11-19T03:27:25;0.65;;;0.65;;
24761;SDS011;12865;51.934;10.330;2023-11-19T03:30:11;0.50;;;0.50;;
24761;SDS011;12865;51.934;10.330;2023-11-19T03:32:57;0.85;;;0.60;;
24761;SDS011;12865;51.934;10.330;2023-11-19T03:35:43;0.65;;;0.60;;
24761;SDS011;12865;51.934;10.330;2023-11-19T03:38:28;0.60;;;0.60;;
24761;SDS011;12865;51.934;10.330;2023-11-19T03:41:14;0.75;;;0.50;;
24761;SDS011;12865;51.934;10.330;2023-11-19T03:44:01;0.60;;;0.60;;
24761;SDS011;12865;51.934;10.330;2023-11-19T03:46:46;0.50;;;0.50;;
24761;SDS011;12865;51.934;10.330;2023-11-19T03:49:32;1.00;;;0.50;;
24761;SDS011;12865;51.934;10.330;2023-11-19T03:52:18;2.55;;;0.73;;
24761;SDS011;12865;51.934;10.330;2023-11-19T03:55:04;0.65;;;0.50;;
24761;SDS011;12865;51.934;10.330;2023-11-19T03:57:51;0.60;;;0.60;;
24761;SDS011;12865;51.934;10.330;2023-11-19T04:00:36;0.57;;;0.57;;
24761;SDS011;12865;51.934;10.330;2023-11-19T04:03:22;0.63;;;0.63;;
24761;SDS011;12865;51.934;10.330;2023-11-19T04:06:07;1.35;;;0.60;;
24761;SDS011;12865;51.934;10.330;2023-11-19T04:08:53;0.85;;;0.82;;
24761;SDS011;12865;51.934;10.330;2023-11-19T04:11:39;0.80;;;0.80;;
24761;SDS011;12865;51.934;10.330;2023-11-19T04:14:25;0.70;;;0.70;;
24761;SDS011;12865;51.934;10.330;2023-11-19T04:17:11;1.25;;;1.15;;
24761;SDS011;12865;51.934;10.330;2023-11-19T04:19:56;0.80;;;0.80;;
24761;SDS011;12865;51.934;10.330;2023-11-19T04:22:42;0.85;;;0.85;;
24761;SDS011;12865;51.934;10.330;2023-11-19T04:25:28;1.25;;;0.77;;
24761;SDS011;12865;51.934;10.330;2023-11-19T04:28:14;0.90;;;0.90;;
24761;SDS011;12865;51.934;10.330;2023-11-19T04:31:00;1.00;;;0.90;;
24761;SDS011;12865;51.934;10.330;2023-11-19T04:33:45;1.63;;;1.02;;
24761;SDS011;12865;51.934;10.330;2023-11-19T04:36:32;2.10;;;1.35;;
24761;SDS011;12865;51.934;10.330;2023-11-19T04:39:19;2.35;;;1.40;;
24761;SDS011;12865;51.934;10.330;2023-11-19T04:42:04;1.60;;;1.50;;
24761;SDS011;12865;51.934;10.330;2023-11-19T04:44:51;1.92;;;1.50;;
24761;SDS011;12865;51.934;10.330;2023-11-19T04:47:37;1.40;;;1.30;;
24761;SDS011;12865;51.934;10.330;2023-11-19T04:50:24;1.35;;;1.20;;
24761;SDS011;12865;51.934;10.330;2023-11-19T04:53:12;0.80;;;0.80;;
24761;SDS011;12865;51.934;10.330;2023-11-19T04:55:58;0.88;;;0.88;;
24761;SDS011;12865;51.934;10.330;2023-11-19T04:58:44;3.22;;;0.70;;
24761;SDS011;12865;51.934;10.330;2023-11-19T05:01:30;0.90;;;0.70;;
24761;SDS011;12865;51.934;10.330;2023-11-19T05:04:15;0.82;;;0.50;;
24761;SDS011;12865;51.934;10.330;2023-11-19T05:07:01;1.63;;;0.75;;
24761;SDS011;12865;51.934;10.330;2023-11-19T05:09:47;1.17;;;0.70;;
24761;SDS011;12865;51.934;10.330;2023-11-19T05:12:32;1.25;;;0.73;;
24761;SDS011;12865;51.934;10.330;2023-11-19T05:15:18;1.13;;;0.60;;
24761;SDS011;12865;51.934;10.330;2023-11-19T05:18:04;1.05;;;0.90;;
24761;SDS011;12865;51.934;10.330;2023-11-19T05:20:50;0.80;;;0.80;;
24761;SDS011;12865;51.934;10.330;2023-11-19T05:23:35;1.85;;;1.00;;
24761;SDS011;12865;51.934;10.330;2023-11-19T05:26:22;0.80;;;0.80;;
24761;SDS011;12865;51.934;10.330;2023-11-19T05:29:08;1.77;;;1.00;;
24761;SDS011;12865;51.934;10.330;2023-11-19T05:31:54;1.90;;;1.48;;
24761;SDS011;12865;51.934;10.330;2023-11-19T05:34:40;1.15;;;1.05;;
24761;SDS011;12865;51.934;10.330;2023-11-19T05:37:26;1.15;;;1.10;;
24761;SDS011;12865;51.934;10.330;2023-11-19T05:40:12;2.63;;;1.00;;
24761;SDS011;12865;51.934;10.330;2023-11-19T05:43:01;3.03;;;1.30;;
24761;SDS011;12865;51.934;10.330;2023-11-19T05:45:47;3.08;;;1.25;;
24761;SDS011;12865;51.934;10.330;2023-11-19T05:48:33;3.58;;;1.40;;
24761;SDS011;12865;51.934;10.330;2023-11-19T05:51:18;1.95;;;1.30;;
24761;SDS011;12865;51.934;10.330;2023-11-19T05:54:05;2.17;;;1.35;;
24761;SDS011;12865;51.934;10.330;2023-11-19T05:56:55;2.97;;;1.27;;
24761;SDS011;12865;51.934;10.330;2023-11-19T05:59:41;2.17;;;1.45;;
24761;SDS011;12865;51.934;10.330;2023-11-19T06:02:26;3.72;;;1.75;;
24761;SDS011;12865;51.934;10.330;2023-11-19T06:05:12;3.53;;;1.48;;
24761;SDS011;12865;51.934;10.330;2023-11-19T06:07:58;3.60;;;1.65;;
24761;SDS011;12865;51.934;10.330;2023-11-19T06:10:44;4.63;;;1.70;;
24761;SDS011;12865;51.934;10.330;2023-11-19T06:13:31;3.55;;;1.42;;
24761;SDS011;12865;51.934;10.330;2023-11-19T06:16:17;3.38;;;1.73;;
24761;SDS011;12865;51.934;10.330;2023-11-19T06:19:03;4.60;;;1.52;;
24761;SDS011;12865;51.934;10.330;2023-11-19T06:21:48;4.40;;;1.77;;
24761;SDS011;12865;51.934;10.330;2023-11-19T06:24:34;7.13;;;1.52;;
24761;SDS011;12865;51.934;10.330;2023-11-19T06:27:21;5.22;;;1.60;;
24761;SDS011;12865;51.934;10.330;2023-11-19T06:30:07;2.65;;;1.70;;
24761;SDS011;12865;51.934;10.330;2023-11-19T06:32:54;6.95;;;1.95;;
24761;SDS011;12865;51.934;10.330;2023-11-19T06:35:40;4.50;;;1.90;;
24761;SDS011;12865;51.934;10.330;2023-11-19T06:38:26;7.03;;;2.00;;
24761;SDS011;12865;51.934;10.330;2023-11-19T06:41:11;4.85;;;1.80;;
24761;SDS011;12865;51.934;10.330;2023-11-19T06:43:57;4.15;;;2.10;;
24761;SDS011;12865;51.934;10.330;2023-11-19T06:46:43;5.93;;;2.00;;
24761;SDS011;12865;51.934;10.330;2023-11-19T06:49:28;6.53;;;1.67;;
24761;SDS011;12865;51.934;10.330;2023-11-19T06:52:14;4.10;;;1.70;;
24761;SDS011;12865;51.934;10.330;2023-11-19T06:55:01;6.18;;;1.80;;
24761;SDS011;12865;51.934;10.330;2023-11-19T06:57:47;2.60;;;2.05;;
24761;SDS011;12865;51.934;10.330;2023-11-19T07:00:33;3.15;;;1.83;;
24761;SDS011;12865;51.934;10.330;2023-11-19T07:03:20;3.10;;;1.83;;
24761;SDS011;12865;51.934;10.330;2023-11-19T07:06:06;2.20;;;1.65;;
24761;SDS011;12865;51.934;10.330;2023-11-19T07:08:52;8.00;;;2.60;;
24761;SDS011;12865;51.934;10.330;2023-11-19T07:11:41;5.85;;;2.08;;
24761;SDS011;12865;51.934;10.330;2023-11-19T07:17:14;4.43;;;2.38;;
24761;SDS011;12865;51.934;10.330;2023-11-19T07:20:00;5.97;;;2.88;;
24761;SDS011;12865;51.934;10.330;2023-11-19T07:22:46;7.68;;;2.58;;
24761;SDS011;12865;51.934;10.330;2023-11-19T07:25:32;5.85;;;2.75;;
24761;SDS011;12865;51.934;10.330;2023-11-19T07:28:17;11.80;;;2.90;;
24761;SDS011;12865;51.934;10.330;2023-11-19T07:31:03;10.02;;;2.63;;
24761;SDS011;12865;51.934;10.330;2023-11-19T07:33:49;7.53;;;2.75;;
24761;SDS011;12865;51.934;10.330;2023-11-19T07:36:35;7.97;;;3.42;;
24761;SDS011;12865;51.934;10.330;2023-11-19T07:39:21;10.13;;;3.17;;
24761;SDS011;12865;51.934;10.330;2023-11-19T07:42:07;8.18;;;2.60;;
24761;SDS011;12865;51.934;10.330;2023-11-19T07:44:52;7.30;;;2.72;;
24761;SDS011;12865;51.934;10.330;2023-11-19T07:47:40;9.68;;;3.05;;
24761;SDS011;12865;51.934;10.330;2023-11-19T07:50:26;10.70;;;3.08;;
24761;SDS011;12865;51.934;10.330;2023-11-19T07:53:12;8.60;;;3.05;;
24761;SDS011;12865;51.934;10.330;2023-11-19T07:55:58;7.40;;;2.70;;
24761;SDS011;12865;51.934;10.330;2023-11-19T07:58:46;15.53;;;3.33;;
24761;SDS011;12865;51.934;10.330;2023-11-19T08:01:33;8.95;;;2.67;;
24761;SDS011;12865;51.934;10.330;2023-11-19T08:04:19;13.77;;;4.15;;
24761;SDS011;12865;51.934;10.330;2023-11-19T08:07:04;15.25;;;3.53;;
24761;SDS011;12865;51.934;10.330;2023-11-19T08:09:50;12.45;;;3.58;;
24761;SDS011;12865;51.934;10.330;2023-11-19T08:12:36;14.38;;;3.55;;
24761;SDS011;12865;51.934;10.330;2023-11-19T08:15:22;15.27;;;4.30;;
24761;SDS011;12865;51.934;10.330;2023-11-19T08:18:07;22.45;;;5.40;;
24761;SDS011;12865;51.934;10.330;2023-11-19T08:20:54;16.17;;;4.45;;
24761;SDS011;12865;51.934;10.330;2023-11-19T08:23:41;12.48;;;3.55;;
24761;SDS011;12865;51.934;10.330;2023-11-19T08:26:27;12.77;;;3.42;;
24761;SDS011;12865;51.934;10.330;2023-11-19T08:29:13;12.52;;;3.20;;
24761;SDS011;12865;51.934;10.330;2023-11-19T08:32:02;17.48;;;3.88;;
24761;SDS011;12865;51.934;10.330;2023-11-19T08:34:49;18.88;;;3.97;;
24761;SDS011;12865;51.934;10.330;2023-11-19T08:37:34;12.43;;;4.00;;
24761;SDS011;12865;51.934;10.330;2023-11-19T08:40:22;13.18;;;4.00;;
24761;SDS011;12865;51.934;10.330;2023-11-19T08:43:08;18.52;;;4.10;;
24761;SDS011;12865;51.934;10.330;2023-11-19T08:45:54;17.95;;;4.18;;
24761;SDS011;12865;51.934;10.330;2023-11-19T08:48:39;16.55;;;4.22;;
24761;SDS011;12865;51.934;10.330;2023-11-19T08:51:25;22.23;;;4.40;;
24761;SDS011;12865;51.934;10.330;2023-11-19T08:54:11;20.55;;;5.07;;
24761;SDS011;12865;51.934;10.330;2023-11-19T08:56:58;22.85;;;4.68;;
24761;SDS011;12865;51.934;10.330;2023-11-19T08:59:44;23.30;;;4.22;;
24761;SDS011;12865;51.934;10.330;2023-11-19T09:02:31;20.17;;;4.90;;
24761;SDS011;12865;51.934;10.330;2023-11-19T09:05:17;16.35;;;4.70;;
24761;SDS011;12865;51.934;10.330;2023-11-19T09:08:03;19.45;;;4.93;;
24761;SDS011;12865;51.934;10.330;2023-11-19T09:10:49;21.25;;;4.97;;
24761;SDS011;12865;51.934;10.330;2023-11-19T09:13:35;21.40;;;5.28;;
24761;SDS011;12865;51.934;10.330;2023-11-19T09:16:21;17.55;;;4.38;;
24761;SDS011;12865;51.934;10.330;2023-11-19T09:19:07;17.25;;;4.72;;
24761;SDS011;12865;51.934;10.330;2023-11-19T09:21:53;24.85;;;6.10;;
24761;SDS011;12865;51.934;10.330;2023-11-19T09:24:39;24.02;;;5.70;;
24761;SDS011;12865;51.934;10.330;2023-11-19T09:27:24;23.15;;;5.38;;
24761;SDS011;12865;51.934;10.330;2023-11-19T09:30:10;24.02;;;5.80;;
24761;SDS011;12865;51.934;10.330;2023-11-19T09:32:56;24.13;;;6.18;;
24761;SDS011;12865;51.934;10.330;2023-11-19T09:35:42;24.05;;;5.65;;
24761;SDS011;12865;51.934;10.330;2023-11-19T09:38:28;18.92;;;4.57;;
24761;SDS011;12865;51.934;10.330;2023-11-19T09:41:13;22.20;;;5.13;;
24761;SDS011;12865;51.934;10.330;2023-11-19T09:43:59;26.25;;;5.32;;
24761;SDS011;12865;51.934;10.330;2023-11-19T09:46:45;18.05;;;5.50;;
24761;SDS011;12865;51.934;10.330;2023-11-19T09:49:32;20.40;;;5.53;;
24761;SDS011;12865;51.934;10.330;2023-11-19T09:52:20;21.85;;;5.30;;
24761;SDS011;12865;51.934;10.330;2023-11-19T09:55:06;17.35;;;5.00;;
24761;SDS011;12865;51.934;10.330;2023-11-19T09:57:52;23.50;;;5.88;;
24761;SDS011;12865;51.934;10.330;2023-11-19T10:00:38;20.52;;;5.68;;
24761;SDS011;12865;51.934;10.330;2023-11-19T10:03:25;20.42;;;4.80;;
24761;SDS011;12865;51.934;10.330;2023-11-19T10:06:12;22.08;;;5.15;;
24761;SDS011;12865;51.934;10.330;2023-11-19T10:09:00;21.50;;;5.75;;
24761;SDS011;12865;51.934;10.330;2023-11-19T10:11:46;19.17;;;4.88;;
24761;SDS011;12865;51.934;10.330;2023-11-19T10:14:31;18.63;;;4.97;;
24761;SDS011;12865;51.934;10.330;2023-11-19T10:17:21;19.35;;;5.45;;
24761;SDS011;12865;51.934;10.330;2023-11-19T10:20:13;26.13;;;6.72;;
24761;SDS011;12865;51.934;10.330;2023-11-19T10:22:59;20.63;;;5.50;;
24761;SDS011;12865;51.934;10.330;2023-11-19T10:25:45;19.02;;;6.10;;
24761;SDS011;12865;51.934;10.330;2023-11-19T10:28:40;22.90;;;5.78;;
24761;SDS011;12865;51.934;10.330;2023-11-19T10:31:29;24.58;;;5.15;;
24761;SDS011;12865;51.934;10.330;2023-11-19T10:34:25;21.25;;;5.70;;
24761;SDS011;12865;51.934;10.330;2023-11-19T10:37:27;23.45;;;5.78;;
24761;SDS011;12865;51.934;10.330;2023-11-19T10:40:15;19.98;;;5.63;;
24761;SDS011;12865;51.934;10.330;2023-11-19T10:43:03;28.55;;;6.30;;
24761;SDS011;12865;51.934;10.330;2023-11-19T10:45:49;21.73;;;4.93;;
24761;SDS011;12865;51.934;10.330;2023-11-19T10:48:35;17.45;;;4.68;;
24761;SDS011;12865;51.934;10.330;2023-11-19T10:51:20;21.00;;;4.57;;
24761;SDS011;12865;51.934;10.330;2023-11-19T10:54:07;17.25;;;5.32;;
24761;SDS011;12865;51.934;10.330;2023-11-19T10:56:55;17.80;;;5.28;;
24761;SDS011;12865;51.934;10.330;2023-11-19T10:59:44;17.58;;;5.25;;
24761;SDS011;12865;51.934;10.330;2023-11-19T11:02:31;14.43;;;5.07;;
24761;SDS011;12865;51.934;10.330;2023-11-19T11:05:21;18.75;;;4.60;;
24761;SDS011;12865;51.934;10.330;2023-11-19T11:08:07;18.80;;;5.65;;
24761;SDS011;12865;51.934;10.330;2023-11-19T11:10:55;20.90;;;6.63;;
24761;SDS011;12865;51.934;10.330;2023-11-19T11:13:42;20.45;;;5.38;;
24761;SDS011;12865;51.934;10.330;2023-11-19T11:16:28;16.80;;;4.95;;
24761;SDS011;12865;51.934;10.330;2023-11-19T11:19:17;22.48;;;5.38;;
24761;SDS011;12865;51.934;10.330;2023-11-19T11:22:04;16.70;;;5.57;;
24761;SDS011;12865;51.934;10.330;2023-11-19T11:24:57;26.27;;;7.32;;
24761;SDS011;12865;51.934;10.330;2023-11-19T11:28:08;18.52;;;5.38;;
24761;SDS011;12865;51.934;10.330;2023-11-19T11:31:03;27.95;;;5.28;;
24761;SDS011;12865;51.934;10.330;2023-11-19T11:37:18;19.80;;;4.70;;
24761;SDS011;12865;51.934;10.330;2023-11-19T11:40:06;19.63;;;5.57;;
24761;SDS011;12865;51.934;10.330;2023-11-19T11:42:55;19.50;;;5.47;;
24761;SDS011;12865;51.934;10.330;2023-11-19T11:45:41;20.52;;;5.03;;
24761;SDS011;12865;51.934;10.330;2023-11-19T11:48:28;19.77;;;5.78;;
24761;SDS011;12865;51.934;10.330;2023-11-19T11:51:16;15.30;;;4.68;;
24761;SDS011;12865;51.934;10.330;2023-11-19T11:54:02;16.33;;;4.78;;
24761;SDS011;12865;51.934;10.330;2023-11-19T11:59:47;19.08;;;5.43;;
24761;SDS011;12865;51.934;10.330;2023-11-19T12:02:33;14.82;;;5.28;;
24761;SDS011;12865;51.934;10.330;2023-11-19T12:05:19;17.90;;;4.88;;
24761;SDS011;12865;51.934;10.330;2023-11-19T12:08:09;18.00;;;5.50;;
24761;SDS011;12865;51.934;10.330;2023-11-19T12:10:57;23.52;;;5.55;;
24761;SDS011;12865;51.934;10.330;2023-11-19T12:13:47;17.88;;;4.65;;
24761;SDS011;12865;51.934;10.330;2023-11-19T12:16:38;19.88;;;5.10;;
24761;SDS011;12865;51.934;10.330;2023-11-19T12:19:24;19.30;;;4.65;;
24761;SDS011;12865;51.934;10.330;2023-11-19T12:22:10;21.45;;;5.10;;
24761;SDS011;12865;51.934;10.330;2023-11-19T12:24:56;22.13;;;5.05;;
24761;SDS011;12865;51.934;10.330;2023-11-19T12:27:46;17.90;;;4.68;;
24761;SDS011;12865;51.934;10.330;2023-11-19T12:30:33;22.33;;;5.05;;
24761;SDS011;12865;51.934;10.330;2023-11-19T12:33:19;21.80;;;4.90;;
24761;SDS011;12865;51.934;10.330;2023-11-19T12:36:05;21.05;;;4.57;;
24761;SDS011;12865;51.934;10.330;2023-11-19T12:38:51;25.23;;;6.18;;
24761;SDS011;12865;51.934;10.330;2023-11-19T12:41:48;20.70;;;6.05;;
24761;SDS011;12865;51.934;10.330;2023-11-19T12:44:35;18.05;;;4.88;;
24761;SDS011;12865;51.934;10.330;2023-11-19T12:47:21;17.38;;;4.55;;
24761;SDS011;12865;51.934;10.330;2023-11-19T12:50:07;17.15;;;4.93;;
24761;SDS011;12865;51.934;10.330;2023-11-19T12:52:57;17.92;;;5.18;;
24761;SDS011;12865;51.934;10.330;2023-11-19T12:55:43;22.38;;;5.22;;
24761;SDS011;12865;51.934;10.330;2023-11-19T12:58:33;22.55;;;5.95;;
24761;SDS011;12865;51.934;10.330;2023-11-19T13:01:20;18.85;;;5.43;;
24761;SDS011;12865;51.934;10.330;2023-11-19T13:04:16;19.10;;;4.93;;
24761;SDS011;12865;51.934;10.330;2023-11-19T13:07:02;21.67;;;4.97;;
24761;SDS011;12865;51.934;10.330;2023-11-19T13:09:49;23.27;;;5.25;;
24761;SDS011;12865;51.934;10.330;2023-11-19T13:12:35;18.98;;;4.57;;
24761;SDS011;12865;51.934;10.330;2023-11-19T13:15:23;16.77;;;4.05;;
24761;SDS011;12865;51.934;10.330;2023-11-19T13:18:12;22.33;;;4.78;;
24761;SDS011;12865;51.934;10.330;2023-11-19T13:20:59;20.48;;;4.18;;
24761;SDS011;12865;51.934;10.330;2023-11-19T13:23:45;19.98;;;4.57;;
24761;SDS011;12865;51.934;10.330;2023-11-19T13:26:31;18.85;;;4.65;;
24761;SDS011;12865;51.934;10.330;2023-11-19T13:29:17;15.85;;;5.05;;
24761;SDS011;12865;51.934;10.330;2023-11-19T13:32:02;18.02;;;4.30;;
24761;SDS011;12865;51.934;10.330;2023-11-19T13:34:49;23.58;;;5.70;;
24761;SDS011;12865;51.934;10.330;2023-11-19T13:37:35;18.27;;;5.78;;
24761;SDS011;12865;51.934;10.330;2023-11-19T13:40:21;20.25;;;5.28;;
24761;SDS011;12865;51.934;10.330;2023-11-19T13:43:07;19.83;;;5.40;;
24761;SDS011;12865;51.934;10.330;2023-11-19T13:45:54;20.80;;;4.70;;
24761;SDS011;12865;51.934;10.330;2023-11-19T13:48:40;21.40;;;5.18;;
24761;SDS011;12865;51.934;10.330;2023-11-19T13:51:26;18.90;;;4.32;;
24761;SDS011;12865;51.934;10.330;2023-11-19T13:54:11;22.85;;;4.40;;
24761;SDS011;12865;51.934;10.330;2023-11-19T13:56:59;20.88;;;4.57;;
24761;SDS011;12865;51.934;10.330;2023-11-19T13:59:46;17.80;;;3.95;;
24761;SDS011;12865;51.934;10.330;2023-11-19T14:02:32;19.25;;;4.40;;
24761;SDS011;12865;51.934;10.330;2023-11-19T14:05:18;13.60;;;3.50;;
24761;SDS011;12865;51.934;10.330;2023-11-19T14:08:07;19.25;;;3.58;;
24761;SDS011;12865;51.934;10.330;2023-11-19T14:10:59;20.50;;;4.50;;
24761;SDS011;12865;51.934;10.330;2023-11-19T14:13:44;20.38;;;4.22;;
24761;SDS011;12865;51.934;10.330;2023-11-19T14:16:31;18.40;;;3.47;;
24761;SDS011;12865;51.934;10.330;2023-11-19T14:19:19;20.95;;;4.28;;
24761;SDS011;12865;51.934;10.330;2023-11-19T14:22:05;15.93;;;3.90;;
24761;SDS011;12865;51.934;10.330;2023-11-19T14:24:52;19.02;;;4.18;;
24761;SDS011;12865;51.934;10.330;2023-11-19T14:27:39;14.30;;;3.55;;
24761;SDS011;12865;51.934;10.330;2023-11-19T14:30:26;18.92;;;4.00;;
24761;SDS011;12865;51.934;10.330;2023-11-19T14:33:12;22.15;;;4.45;;
24761;SDS011;12865;51.934;10.330;2023-11-19T14:35:57;21.90;;;4.47;;
24761;SDS011;12865;51.934;10.330;2023-11-19T14:38:43;16.58;;;3.63;;
24761;SDS011;12865;51.934;10.330;2023-11-19T14:41:29;27.60;;;11.77;;
24761;SDS011;12865;51.934;10.330;2023-11-19T14:44:15;35.42;;;10.55;;
24761;SDS011;12865;51.934;10.330;2023-11-19T14:47:00;23.65;;;7.20;;
24761;SDS011;12865;51.934;10.330;2023-11-19T14:49:47;22.58;;;7.70;;
24761;SDS011;12865;51.934;10.330;2023-11-19T14:52:34;20.30;;;4.10;;
24761;SDS011;12865;51.934;10.330;2023-11-19T14:55:21;17.08;;;4.22;;
24761;SDS011;12865;51.934;10.330;2023-11-19T14:58:07;23.25;;;5.60;;
24761;SDS011;12865;51.934;10.330;2023-11-19T15:00:52;21.48;;;5.05;;
24761;SDS011;12865;51.934;10.330;2023-11-19T15:03:38;26.10;;;5.18;;
24761;SDS011;12865;51.934;10.330;2023-11-19T15:06:24;23.90;;;4.15;;
24761;SDS011;12865;51.934;10.330;2023-11-19T15:09:12;16.58;;;3.80;;
24761;SDS011;12865;51.934;10.330;2023-11-19T15:12:02;16.85;;;3.50;;
24761;SDS011;12865;51.934;10.330;2023-11-19T15:14:49;21.35;;;3.92;;
24761;SDS011;12865;51.934;10.330;2023-11-19T15:17:35;13.93;;;3.85;;
24761;SDS011;12865;51.934;10.330;2023-11-19T15:20:21;13.85;;;4.05;;
24761;SDS011;12865;51.934;10.330;2023-11-19T15:23:07;17.40;;;3.95;;
24761;SDS011;12865;51.934;10.330;2023-11-19T15:25:54;14.90;;;4.20;;
24761;SDS011;12865;51.934;10.330;2023-11-19T15:28:40;20.65;;;4.05;;
24761;SDS011;12865;51.934;10.330;2023-11-19T15:31:26;13.18;;;3.10;;
24761;SDS011;12865;51.934;10.330;2023-11-19T15:34:12;25.02;;;4.47;;
24761;SDS011;12865;51.934;10.330;2023-11-19T15:36:58;17.48;;;4.10;;
24761;SDS011;12865;51.934;10.330;2023-11-19T15:39:43;8.88;;;3.17;;
24761;SDS011;12865;51.934;10.330;2023-11-19T15:42:29;13.25;;;3.75;;
24761;SDS011;12865;51.934;10.330;2023-11-19T15:45:15;13.52;;;3.38;;
24761;SDS011;12865;51.934;10.330;2023-11-19T15:48:01;12.63;;;3.78;;
24761;SDS011;12865;51.934;10.330;2023-11-19T15:50:47;17.35;;;3.25;;
24761;SDS011;12865;51.934;10.330;2023-11-19T15:53:33;13.80;;;3.78;;
24761;SDS011;12865;51.934;10.330;2023-11-19T15:56:19;13.18;;;4.07;;
24761;SDS011;12865;51.934;10.330;2023-11-19T15:59:04;14.65;;;3.53;;
24761;SDS011;12865;51.934;10.330;2023-11-19T16:01:50;15.57;;;4.45;;
24761;SDS011;12865;51.934;10.330;2023-11-19T16:04:36;15.98;;;4.93;;
24761;SDS011;12865;51.934;10.330;2023-11-19T16:07:21;19.27;;;3.92;;
24761;SDS011;12865;51.934;10.330;2023-11-19T16:10:07;16.85;;;4.22;;
24761;SDS011;12865;51.934;10.330;2023-11-19T16:12:54;15.25;;;4.03;;
24761;SDS011;12865;51.934;10.330;2023-11-19T16:15:40;16.92;;;4.05;;
24761;SDS011;12865;51.934;10.330;2023-11-19T16:18:26;18.58;;;5.65;;
24761;SDS011;12865;51.934;10.330;2023-11-19T16:21:13;17.25;;;4.75;;
24761;SDS011;12865;51.934;10.330;2023-11-19T16:23:58;16.55;;;3.78;;
24761;SDS011;12865;51.934;10.330;2023-11-19T16:26:47;16.08;;;3.60;;
24761;SDS011;12865;51.934;10.330;2023-11-19T16:29:33;17.70;;;3.67;;
24761;SDS011;12865;51.934;10.330;2023-11-19T16:32:19;16.40;;;3.40;;
24761;SDS011;12865;51.934;10.330;2023-11-19T16:35:05;17.40;;;3.65;;